createdAt,value
2018-05-18T00:00:38.851Z,19.70
2018-05-18T00:03:07.238Z,19.70
2018-05-18T00:05:36.489Z,19.90
2018-05-18T00:08:04.966Z,19.90
2018-05-18T00:10:33.390Z,19.90
2018-05-18T00:13:01.931Z,19.90
2018-05-18T00:15:30.409Z,19.90
2018-05-18T00:17:58.993Z,20.00
2018-05-18T00:20:28.420Z,20.00
2018-05-18T00:22:56.911Z,20.10
2018-05-18T00:25:25.370Z,20.10
2018-05-18T00:27:53.836Z,20.10
2018-05-18T00:30:22.415Z,20.10
2018-05-18T00:32:50.897Z,20.10
2018-05-18T00:35:19.249Z,20.10
2018-05-18T00:37:48.379Z,20.10
2018-05-18T00:40:16.792Z,20.20
2018-05-18T00:42:45.849Z,20.20
2018-05-18T00:45:14.325Z,20.20
2018-05-18T00:47:42.824Z,20.20
2018-05-18T00:50:11.291Z,20.20
2018-05-18T00:52:39.698Z,20.30
2018-05-18T00:58:10.753Z,20.30
2018-05-18T01:00:39.256Z,20.40
2018-05-18T01:03:07.788Z,20.30
2018-05-18T01:05:36.373Z,20.30
2018-05-18T01:08:04.886Z,20.10
2018-05-18T01:10:34.054Z,19.90
2018-05-18T01:13:02.540Z,19.80
2018-05-18T01:15:30.922Z,19.60
2018-05-18T01:17:59.395Z,19.50
2018-05-18T01:20:27.972Z,19.20
2018-05-18T01:22:56.464Z,19.10
2018-05-18T01:25:25.698Z,18.90
2018-05-18T01:27:54.092Z,18.80
2018-05-18T01:30:23.177Z,19.00
2018-05-18T01:32:51.735Z,19.00
2018-05-18T01:35:20.294Z,19.10
2018-05-18T01:37:49.698Z,19.20
2018-05-18T01:40:18.097Z,19.30
2018-05-18T01:42:47.577Z,19.50
2018-05-18T01:45:16.161Z,19.50
2018-05-18T01:47:44.655Z,19.60
2018-05-18T01:50:13.071Z,19.70
2018-05-18T01:52:41.608Z,19.70
2018-05-18T01:55:10.091Z,19.70
2018-05-18T01:57:38.669Z,19.70
2018-05-18T02:00:07.214Z,19.70
2018-05-18T02:02:36.367Z,19.70
2018-05-18T02:05:06.076Z,19.70
2018-05-18T02:07:35.431Z,19.60
2018-05-18T02:10:04.759Z,19.60
2018-05-18T02:12:33.222Z,19.60
2018-05-18T02:15:01.725Z,19.50
2018-05-18T02:17:30.343Z,19.60
2018-05-18T02:20:00.276Z,19.30
2018-05-18T02:22:29.521Z,19.10
2018-05-18T02:24:58.240Z,19.10
2018-05-18T02:27:26.745Z,19.00
2018-05-18T02:29:55.277Z,18.90
2018-05-18T02:32:23.960Z,18.90
2018-05-18T02:34:52.639Z,18.60
2018-05-18T02:37:21.125Z,18.40
2018-05-18T02:39:49.525Z,18.40
2018-05-18T02:42:18.307Z,18.40
2018-05-18T02:44:46.771Z,18.20
2018-05-18T02:47:15.183Z,18.10
2018-05-18T02:49:43.607Z,18.00
2018-05-18T02:52:12.109Z,17.90
2018-05-18T02:54:40.596Z,17.80
2018-05-18T02:57:08.960Z,17.80
2018-05-18T02:59:37.554Z,17.70
2018-05-18T03:02:06.036Z,17.70
2018-05-18T03:04:34.346Z,17.70
2018-05-18T03:07:03.097Z,17.70
2018-05-18T03:09:31.685Z,17.70
2018-05-18T03:12:00.062Z,17.70
2018-05-18T03:14:28.365Z,17.60
2018-05-18T03:16:56.692Z,17.60
2018-05-18T03:19:25.298Z,17.50
2018-05-18T03:21:53.632Z,17.50
2018-05-18T03:24:21.997Z,17.40
2018-05-18T03:26:52.611Z,17.30
2018-05-18T03:29:20.992Z,17.30
2018-05-18T03:31:49.646Z,17.30
2018-05-18T03:34:18.288Z,17.30
2018-05-18T03:36:47.384Z,17.20
2018-05-18T03:39:15.951Z,17.20
2018-05-18T03:41:44.492Z,17.20
2018-05-18T03:44:12.979Z,17.20
2018-05-18T03:46:41.418Z,17.10
2018-05-18T03:49:10.651Z,17.10
2018-05-18T03:51:39.173Z,17.10
2018-05-18T03:54:07.505Z,17.10
2018-05-18T03:56:35.999Z,17.10
2018-05-18T03:59:04.474Z,17.10
2018-05-18T04:01:44.969Z,17.10
2018-05-18T04:04:25.394Z,17.00
2018-05-18T04:07:05.738Z,17.00
2018-05-18T04:09:34.236Z,16.90
2018-05-18T04:12:02.948Z,16.90
2018-05-18T04:14:31.408Z,16.90
2018-05-18T04:16:59.739Z,16.80
2018-05-18T04:19:28.269Z,16.80
2018-05-18T04:21:56.689Z,16.70
2018-05-18T04:24:25.332Z,16.70
2018-05-18T04:26:53.622Z,16.70
2018-05-18T04:29:22.093Z,16.60
2018-05-18T04:31:51.146Z,16.60
2018-05-18T04:34:20.265Z,16.60
2018-05-18T04:36:48.754Z,16.60
2018-05-18T04:39:17.247Z,16.60
2018-05-18T04:41:46.896Z,16.60
2018-05-18T04:44:15.374Z,16.60
2018-05-18T04:46:44.012Z,16.70
2018-05-18T04:49:12.387Z,16.70
2018-05-18T04:51:40.735Z,16.70
2018-05-18T04:54:09.977Z,16.60
2018-05-18T04:56:38.457Z,16.60
2018-05-18T04:59:06.931Z,16.70
2018-05-18T05:01:35.554Z,16.70
2018-05-18T05:04:03.896Z,16.80
2018-05-18T05:06:32.266Z,16.70
2018-05-18T05:09:00.683Z,16.70
2018-05-18T05:11:29.010Z,16.70
2018-05-18T05:13:57.373Z,16.70
2018-05-18T05:16:26.498Z,16.90
2018-05-18T05:18:55.306Z,16.80
2018-05-18T05:21:23.697Z,17.00
2018-05-18T05:23:52.147Z,17.30
2018-05-18T05:26:20.630Z,17.50
2018-05-18T05:28:48.948Z,17.70
2018-05-18T05:31:17.485Z,18.10
2018-05-18T05:33:45.815Z,18.20
2018-05-18T05:36:15.006Z,18.70
2018-05-18T05:38:43.471Z,18.60
2018-05-18T05:41:11.859Z,18.90
2018-05-18T05:43:41.837Z,19.50
2018-05-18T05:46:10.322Z,19.50
2018-05-18T05:48:38.746Z,19.80
2018-05-18T05:51:07.110Z,19.90
2018-05-18T05:53:35.557Z,20.20
2018-05-18T05:56:04.075Z,20.30
2018-05-18T05:58:32.570Z,20.40
2018-05-18T06:01:00.995Z,20.40
2018-05-18T06:03:29.298Z,20.60
2018-05-18T06:05:57.755Z,20.50
2018-05-18T06:08:26.238Z,20.60
2018-05-18T06:10:54.822Z,20.80
2018-05-18T06:13:23.215Z,20.70
2018-05-18T06:15:51.680Z,20.90
2018-05-18T06:18:20.163Z,20.90
2018-05-18T06:20:48.741Z,20.90
2018-05-18T06:23:17.122Z,21.00
2018-05-18T06:25:45.498Z,20.80
2018-05-18T06:28:13.984Z,21.00
2018-05-18T06:30:42.360Z,21.10
2018-05-18T06:33:10.845Z,20.70
2018-05-18T06:35:39.253Z,20.80
2018-05-18T06:38:07.739Z,20.90
2018-05-18T06:40:36.389Z,21.40
2018-05-18T06:43:05.994Z,22.20
2018-05-18T06:45:34.373Z,22.80
2018-05-18T06:48:02.781Z,23.10
2018-05-18T06:50:31.230Z,23.40
2018-05-18T06:52:59.714Z,23.70
2018-05-18T06:55:28.252Z,23.90
2018-05-18T06:57:57.384Z,24.10
2018-05-18T07:00:26.747Z,24.10
2018-05-18T07:02:55.928Z,24.00
2018-05-18T07:05:24.473Z,24.00
2018-05-18T07:07:52.900Z,24.20
2018-05-18T07:10:22.005Z,23.90
2018-05-18T07:12:51.161Z,23.80
2018-05-18T07:15:19.474Z,23.80
2018-05-18T07:17:47.839Z,23.80
2018-05-18T07:20:17.101Z,23.80
2018-05-18T07:22:45.511Z,23.80
2018-05-18T07:25:13.848Z,24.00
2018-05-18T07:27:42.273Z,24.30
2018-05-18T07:30:12.348Z,24.50
2018-05-18T07:32:40.799Z,24.50
2018-05-18T07:35:09.984Z,23.90
2018-05-18T07:37:39.239Z,23.70
2018-05-18T07:40:07.563Z,23.70
2018-05-18T07:42:36.761Z,23.10
2018-05-18T07:45:05.892Z,22.90
2018-05-18T07:47:34.382Z,22.90
2018-05-18T07:50:03.053Z,22.80
2018-05-18T07:52:32.263Z,22.70
2018-05-18T07:55:00.667Z,22.60
2018-05-18T07:57:29.045Z,22.60
2018-05-18T07:59:57.462Z,22.70
2018-05-18T08:02:25.911Z,22.80
2018-05-18T08:04:54.247Z,22.90
2018-05-18T08:07:22.664Z,22.80
2018-05-18T08:09:51.115Z,22.80
2018-05-18T08:12:19.558Z,23.00
2018-05-18T08:14:48.799Z,23.20
2018-05-18T08:17:17.281Z,23.20
2018-05-18T08:19:45.628Z,23.20
2018-05-18T08:22:14.247Z,23.10
2018-05-18T08:24:43.744Z,22.90
2018-05-18T08:27:23.630Z,22.90
2018-05-18T08:29:52.182Z,22.90
2018-05-18T08:32:20.657Z,22.80
2018-05-18T08:34:49.140Z,23.00
2018-05-18T08:37:17.824Z,22.90
2018-05-18T08:39:46.313Z,23.00
2018-05-18T08:42:15.096Z,23.30
2018-05-18T08:44:43.578Z,23.10
2018-05-18T08:47:12.157Z,23.60
2018-05-18T08:49:40.639Z,23.90
2018-05-18T08:52:09.058Z,24.10
2018-05-18T08:54:37.602Z,24.20
2018-05-18T08:57:06.104Z,24.50
2018-05-18T08:59:34.560Z,24.70
2018-05-18T09:02:02.962Z,24.70
2018-05-18T09:04:31.417Z,24.80
2018-05-18T09:06:59.899Z,24.80
2018-05-18T09:09:28.494Z,24.50
2018-05-18T09:11:57.567Z,24.90
2018-05-18T09:14:26.047Z,25.30
2018-05-18T09:16:54.540Z,25.70
2018-05-18T09:19:22.964Z,25.90
2018-05-18T09:21:51.500Z,26.00
2018-05-18T09:24:20.639Z,25.90
2018-05-18T09:26:49.896Z,26.00
2018-05-18T09:29:18.375Z,25.90
2018-05-18T09:31:46.878Z,25.80
2018-05-18T09:34:15.416Z,25.40
2018-05-18T09:36:44.882Z,25.70
2018-05-18T09:39:13.741Z,25.70
2018-05-18T09:41:42.165Z,25.60
2018-05-18T09:44:10.695Z,25.90
2018-05-18T09:46:39.077Z,26.00
2018-05-18T09:49:07.598Z,26.20
2018-05-18T09:51:36.144Z,26.20
2018-05-18T09:54:04.662Z,26.40
2018-05-18T09:56:33.104Z,26.60
2018-05-18T09:59:01.744Z,26.90
2018-05-18T10:01:30.987Z,26.90
2018-05-18T10:03:59.467Z,26.80
2018-05-18T10:06:27.945Z,26.80
2018-05-18T10:08:56.271Z,26.50
2018-05-18T10:11:24.808Z,26.40
2018-05-18T10:13:53.393Z,26.30
2018-05-18T10:16:22.705Z,26.00
2018-05-18T10:18:51.282Z,25.80
2018-05-18T10:21:19.757Z,25.70
2018-05-18T10:23:48.953Z,25.70
2018-05-18T10:26:17.433Z,25.80
2018-05-18T10:28:45.739Z,26.10
2018-05-18T10:31:14.108Z,26.30
2018-05-18T10:33:42.565Z,26.70
2018-05-18T10:36:11.918Z,26.60
2018-05-18T10:38:40.347Z,26.30
2018-05-18T10:41:08.896Z,26.00
2018-05-18T10:43:38.131Z,25.30
2018-05-18T10:46:06.867Z,25.30
2018-05-18T10:48:35.301Z,25.10
2018-05-18T10:51:03.729Z,25.30
2018-05-18T10:53:33.083Z,26.00
2018-05-18T10:56:01.556Z,25.90
2018-05-18T10:58:30.161Z,26.20
2018-05-18T11:00:58.625Z,26.60
2018-05-18T11:03:27.267Z,27.00
2018-05-18T11:05:56.571Z,27.60
2018-05-18T11:08:25.752Z,28.10
2018-05-18T11:10:54.292Z,28.00
2018-05-18T11:13:22.779Z,28.10
2018-05-18T11:15:51.250Z,28.20
2018-05-18T11:18:19.728Z,28.20
2018-05-18T11:20:49.105Z,28.20
2018-05-18T11:23:17.830Z,28.30
2018-05-18T11:25:47.046Z,28.10
2018-05-18T11:28:15.615Z,28.10
2018-05-18T11:30:44.192Z,27.40
2018-05-18T11:33:12.735Z,27.40
2018-05-18T11:35:41.116Z,27.50
2018-05-18T11:38:09.629Z,27.60
2018-05-18T11:40:38.178Z,27.80
2018-05-18T11:43:06.558Z,28.10
2018-05-18T11:45:35.697Z,28.00
2018-05-18T11:48:04.228Z,28.00
2018-05-18T11:50:33.512Z,28.10
2018-05-18T11:53:02.046Z,28.10
2018-05-18T11:55:30.711Z,27.60
2018-05-18T11:57:59.250Z,27.50
2018-05-18T12:00:27.692Z,27.40
2018-05-18T12:02:56.407Z,27.30
2018-05-18T12:05:25.239Z,27.10
2018-05-18T12:07:54.262Z,27.30
2018-05-18T12:10:23.049Z,27.70
2018-05-18T12:12:51.634Z,28.20
2018-05-18T12:15:20.309Z,28.20
2018-05-18T12:17:49.624Z,28.20
2018-05-18T12:20:19.176Z,28.20
2018-05-18T12:22:47.708Z,28.30
2018-05-18T12:25:16.099Z,28.70
2018-05-18T12:27:45.524Z,28.90
2018-05-18T12:30:14.025Z,29.00
2018-05-18T12:32:42.525Z,28.70
2018-05-18T12:35:10.979Z,28.20
2018-05-18T12:37:41.059Z,28.00
2018-05-18T12:40:09.439Z,28.00
2018-05-18T12:42:37.799Z,28.30
2018-05-18T12:45:06.249Z,28.90
2018-05-18T12:47:35.383Z,29.70
2018-05-18T12:50:03.766Z,29.70
2018-05-18T12:52:32.349Z,30.20
2018-05-18T12:55:00.835Z,30.40
2018-05-18T12:57:29.207Z,30.20
2018-05-18T12:59:57.550Z,30.00
2018-05-18T13:02:26.651Z,30.60
2018-05-18T13:04:55.815Z,30.70
2018-05-18T13:07:25.798Z,30.50
2018-05-18T13:09:54.360Z,30.50
2018-05-18T13:12:22.859Z,30.20
2018-05-18T13:14:51.441Z,29.60
2018-05-18T13:17:19.922Z,29.20
2018-05-18T13:19:48.300Z,28.80
2018-05-18T13:22:16.685Z,28.80
2018-05-18T13:24:45.059Z,29.50
2018-05-18T13:27:13.478Z,30.00
2018-05-18T13:29:41.863Z,30.40
2018-05-18T13:32:10.398Z,30.90
2018-05-18T13:34:38.783Z,30.90
2018-05-18T13:37:07.255Z,30.50
2018-05-18T13:39:35.944Z,30.10
2018-05-18T13:42:04.277Z,29.80
2018-05-18T13:44:33.422Z,30.50
2018-05-18T13:47:02.003Z,30.50
2018-05-18T13:49:31.122Z,30.20
2018-05-18T13:51:59.642Z,29.70
2018-05-18T13:54:28.791Z,29.10
2018-05-18T13:56:57.418Z,29.10
2018-05-18T13:59:26.663Z,29.10
2018-05-18T14:01:56.767Z,29.10
2018-05-18T14:04:25.301Z,29.00
2018-05-18T14:06:54.755Z,28.30
2018-05-18T14:09:23.351Z,28.30
2018-05-18T14:11:52.030Z,27.20
2018-05-18T14:14:20.547Z,27.20
2018-05-18T14:16:49.105Z,27.30
2018-05-18T14:19:17.576Z,27.00
2018-05-18T14:21:45.949Z,27.10
2018-05-18T14:24:14.545Z,26.80
2018-05-18T14:26:43.020Z,26.90
2018-05-18T14:29:11.562Z,25.90
2018-05-18T14:31:40.693Z,25.60
2018-05-18T14:34:09.060Z,25.60
2018-05-18T14:36:37.657Z,25.20
2018-05-18T14:39:06.238Z,25.60
2018-05-18T14:41:34.768Z,26.10
2018-05-18T14:44:04.746Z,27.50
2018-05-18T14:46:33.142Z,27.50
2018-05-18T14:49:01.909Z,27.30
2018-05-18T14:51:31.526Z,27.00
2018-05-18T14:54:00.025Z,27.40
2018-05-18T14:56:28.528Z,27.10
2018-05-18T14:58:57.638Z,28.50
2018-05-18T15:01:28.224Z,28.30
2018-05-18T15:03:56.745Z,28.20
2018-05-18T15:06:25.210Z,28.20
2018-05-18T15:08:53.619Z,28.80
2018-05-18T15:11:22.230Z,28.60
2018-05-18T15:13:50.811Z,28.00
2018-05-18T15:16:19.303Z,28.10
2018-05-18T15:18:47.830Z,27.40
2018-05-18T15:21:17.180Z,25.70
2018-05-18T15:23:45.607Z,25.70
2018-05-18T15:26:14.859Z,24.60
2018-05-18T15:28:43.452Z,24.50
2018-05-18T15:31:12.068Z,23.90
2018-05-18T15:33:41.962Z,22.40
2018-05-18T15:36:10.367Z,22.40
2018-05-18T15:38:38.810Z,22.30
2018-05-18T15:41:07.303Z,22.10
2018-05-18T15:43:35.761Z,22.30
2018-05-18T15:46:04.229Z,22.10
2018-05-18T15:48:33.133Z,22.20
2018-05-18T15:51:01.826Z,22.50
2018-05-18T15:53:30.736Z,22.20
2018-05-18T15:56:00.077Z,22.40
2018-05-18T15:58:28.740Z,22.50
2018-05-18T16:00:57.271Z,22.50
2018-05-18T16:03:25.614Z,22.70
2018-05-18T16:05:54.770Z,23.00
2018-05-18T16:08:23.259Z,22.90
2018-05-18T16:10:51.705Z,23.70
2018-05-18T16:13:20.190Z,23.90
2018-05-18T16:15:48.615Z,24.10
2018-05-18T16:18:17.234Z,24.30
2018-05-18T16:20:45.575Z,24.50
2018-05-18T16:23:14.052Z,24.00
2018-05-18T16:25:42.408Z,24.30
2018-05-18T16:28:10.869Z,24.00
2018-05-18T16:30:39.353Z,23.60
2018-05-18T16:33:07.829Z,23.10
2018-05-18T16:35:36.316Z,22.90
2018-05-18T16:38:04.894Z,22.50
2018-05-18T16:40:34.062Z,22.20
2018-05-18T16:43:03.396Z,21.50
2018-05-18T16:45:31.736Z,21.40
2018-05-18T16:48:00.917Z,21.20
2018-05-18T16:50:29.548Z,21.20
2018-05-18T16:52:59.553Z,21.10
2018-05-18T16:55:29.537Z,21.00
2018-05-18T16:57:58.725Z,21.00
2018-05-18T17:00:28.091Z,21.10
2018-05-18T17:02:57.969Z,21.10
2018-05-18T17:05:26.788Z,21.10
2018-05-18T17:07:55.265Z,20.90
2018-05-18T17:10:23.746Z,20.90
2018-05-18T17:12:52.232Z,20.80
2018-05-18T17:15:22.645Z,20.90
2018-05-18T17:17:52.160Z,20.80
2018-05-18T17:20:20.705Z,20.80
2018-05-18T17:22:50.980Z,21.20
2018-05-18T17:25:19.805Z,21.20
2018-05-18T17:27:48.949Z,22.00
2018-05-18T17:30:17.312Z,22.00
2018-05-18T17:32:46.623Z,22.20
2018-05-18T17:35:15.010Z,21.90
2018-05-18T17:37:43.435Z,21.80
2018-05-18T17:40:11.976Z,21.50
2018-05-18T17:42:40.320Z,21.20
2018-05-18T17:45:10.405Z,20.80
2018-05-18T17:47:38.971Z,20.80
2018-05-18T17:50:07.651Z,20.70
2018-05-18T17:52:36.227Z,20.50
2018-05-18T17:55:04.804Z,20.30
2018-05-18T17:57:33.257Z,20.20
2018-05-18T18:00:02.401Z,19.90
2018-05-18T18:02:31.394Z,19.90
2018-05-18T18:04:59.851Z,19.80
2018-05-18T18:07:28.455Z,19.80
2018-05-18T18:09:57.018Z,19.70
2018-05-18T18:12:25.397Z,19.70
2018-05-18T18:14:53.836Z,19.70
2018-05-18T18:17:23.074Z,19.50
2018-05-18T18:19:51.557Z,19.50
2018-05-18T18:22:20.094Z,19.50
2018-05-18T18:24:50.462Z,19.50
2018-05-18T18:27:19.071Z,19.50
2018-05-18T18:29:47.493Z,19.40
2018-05-18T18:32:16.835Z,19.40
2018-05-18T18:34:45.277Z,19.40
2018-05-18T18:37:13.692Z,19.40
2018-05-18T18:39:42.371Z,19.40
2018-05-18T18:42:10.852Z,19.30
2018-05-18T18:44:39.344Z,19.30
2018-05-18T18:47:07.715Z,19.30
2018-05-18T18:49:36.191Z,19.30
2018-05-18T18:52:04.714Z,19.30
2018-05-18T18:54:33.309Z,19.40
2018-05-18T18:57:01.859Z,19.40
2018-05-18T18:59:30.408Z,19.40
2018-05-18T19:01:59.103Z,19.40
2018-05-18T19:04:27.597Z,19.40
2018-05-18T19:06:56.100Z,19.30
2018-05-18T19:09:24.555Z,19.30
2018-05-18T19:11:53.057Z,19.20
2018-05-18T19:14:21.623Z,19.20
2018-05-18T19:16:50.919Z,19.10
2018-05-18T19:19:19.499Z,19.00
2018-05-18T19:21:48.103Z,19.00
2018-05-18T19:24:18.470Z,18.90
2018-05-18T19:26:47.712Z,18.80
2018-05-18T19:29:16.186Z,18.70
2018-05-18T19:31:44.638Z,18.70
2018-05-18T19:34:14.689Z,18.60
2018-05-18T19:36:43.098Z,18.60
2018-05-18T19:39:11.594Z,18.60
2018-05-18T19:41:40.131Z,18.50
2018-05-18T19:44:08.523Z,18.50
2018-05-18T19:46:37.259Z,18.30
2018-05-18T19:49:06.501Z,18.10
2018-05-18T19:51:35.075Z,18.00
2018-05-18T19:54:03.661Z,17.90
2018-05-18T19:56:32.193Z,17.90
2018-05-18T19:59:01.441Z,17.80
2018-05-18T20:01:31.052Z,17.80
2018-05-18T20:03:59.529Z,17.70
2018-05-18T20:06:27.958Z,17.70
2018-05-18T20:08:56.298Z,17.60
2018-05-18T20:11:24.639Z,17.50
2018-05-18T20:13:53.883Z,17.40
2018-05-18T20:16:22.257Z,17.40
2018-05-18T20:18:51.429Z,17.40
2018-05-18T20:21:20.740Z,17.40
2018-05-18T20:23:49.175Z,17.40
2018-05-18T20:26:19.131Z,17.30
2018-05-18T20:28:47.825Z,17.30
2018-05-18T20:31:20.469Z,17.20
2018-05-18T20:33:49.699Z,17.40
2018-05-18T20:36:19.771Z,17.50
2018-05-18T20:38:49.016Z,17.60
2018-05-18T20:41:17.609Z,17.50
2018-05-18T20:43:46.799Z,17.60
2018-05-18T20:46:16.982Z,17.70
2018-05-18T20:48:46.795Z,17.40
2018-05-18T20:51:17.699Z,17.40
2018-05-18T20:53:57.889Z,17.30
2018-05-18T20:56:26.360Z,17.20
2018-05-18T20:58:55.121Z,17.20
2018-05-18T21:01:23.589Z,17.20
2018-05-18T21:03:52.104Z,17.20
2018-05-18T21:06:21.355Z,17.20
2018-05-18T21:08:51.069Z,17.20
2018-05-18T21:11:20.447Z,17.20
2018-05-18T21:13:49.042Z,17.20
2018-05-18T21:16:17.647Z,17.20
2018-05-18T21:18:46.523Z,17.30
2018-05-18T21:21:15.002Z,17.30
2018-05-18T21:23:43.584Z,17.20
2018-05-18T21:26:12.103Z,17.20
2018-05-18T21:28:42.082Z,17.30
2018-05-18T21:31:10.517Z,17.30
2018-05-18T21:33:39.590Z,17.30
2018-05-18T21:36:08.346Z,17.30
2018-05-18T21:38:36.938Z,17.40
2018-05-18T21:41:05.390Z,17.30
2018-05-18T21:43:33.798Z,17.20
2018-05-18T21:46:02.267Z,17.20
2018-05-18T21:48:30.748Z,17.10
2018-05-18T21:50:59.330Z,17.10
2018-05-18T21:53:27.917Z,17.00
2018-05-18T21:55:56.605Z,17.00
2018-05-18T21:58:25.132Z,17.00
2018-05-18T22:00:54.421Z,16.90
2018-05-18T22:03:22.969Z,16.90
2018-05-18T22:05:52.000Z,16.80
2018-05-18T22:08:20.343Z,16.90
2018-05-18T22:10:48.819Z,17.00
2018-05-18T22:13:17.340Z,17.00
2018-05-18T22:15:49.061Z,16.90
2018-05-18T22:18:17.756Z,16.90
2018-05-18T22:20:47.330Z,16.90
2018-05-18T22:23:15.977Z,16.80
2018-05-18T22:25:46.366Z,16.80
2018-05-18T22:28:14.893Z,16.80
2018-05-18T22:30:45.755Z,16.80
2018-05-18T22:33:17.102Z,16.80
2018-05-18T22:35:47.067Z,16.80
2018-05-18T22:38:15.812Z,16.80
2018-05-18T22:40:45.519Z,16.80
2018-05-18T22:43:15.716Z,16.80
2018-05-18T22:45:44.399Z,16.70
2018-05-18T22:48:12.861Z,16.80
2018-05-18T22:50:41.346Z,16.90
2018-05-18T22:53:11.525Z,17.00
2018-05-18T22:55:40.318Z,17.00
2018-05-18T22:58:08.796Z,17.20
2018-05-18T23:00:37.224Z,17.10
2018-05-18T23:03:06.587Z,16.90
2018-05-18T23:05:35.907Z,16.90
2018-05-18T23:08:04.483Z,16.90
2018-05-18T23:10:34.203Z,16.80
2018-05-18T23:13:05.559Z,17.00
2018-05-18T23:15:34.826Z,17.20
2018-05-18T23:18:03.568Z,17.20
2018-05-18T23:20:32.906Z,17.20
2018-05-18T23:23:01.391Z,17.20
2018-05-18T23:25:29.820Z,17.10
2018-05-18T23:27:59.065Z,17.00
2018-05-18T23:30:27.461Z,17.00
2018-05-18T23:32:55.822Z,17.00
2018-05-18T23:35:24.351Z,16.90
2018-05-18T23:37:52.755Z,16.80
2018-05-18T23:40:22.224Z,16.60
2018-05-18T23:42:50.741Z,16.60
2018-05-18T23:45:19.187Z,16.50
2018-05-18T23:47:47.559Z,16.40
2018-05-18T23:50:16.066Z,16.30
2018-05-18T23:52:45.267Z,16.20
2018-05-18T23:55:14.622Z,16.20
2018-05-18T23:57:43.023Z,16.20
